Time;durP1;ratioP1;P1;durP2;ratioP2;P2;SDS_P1;SDS_P2;PMS_P1;PMS_P2;Temp;Humidity;BMP_temperature;BMP_pressure;BME280_temperature;BME280_humidity;BME280_pressure;Samples;Min_cycle;Max_cycle;Signal;HPM_P1;HPM_P2
2022/11/30 00:00:23;;;;;;;72.63;17.70;;;;;4.10;94171.00;;;;7397712;19;20144;-75
2022/11/30 00:02:57;;;;;;;53.57;15.30;;;;;4.10;94165.00;;;;7397575;19;20144;-75
2022/11/30 00:05:25;;;;;;;60.57;15.87;;;;;4.00;94169.00;;;;7397490;19;20612;-75
2022/11/30 00:07:55;;;;;;;189.03;25.53;;;;;4.00;94159.00;;;;7399598;19;20133;-76
2022/11/30 00:10:29;;;;;;;309.67;29.23;;;;;4.20;94163.00;;;;7399134;19;20141;-75
2022/11/30 00:12:57;;;;;;;114.60;21.63;;;;;4.10;94159.00;;;;7396940;19;20138;-76
2022/11/30 00:15:24;;;;;;;538.07;40.33;;;;;4.00;94154.00;;;;7396933;19;20131;-76
2022/11/30 00:17:59;;;;;;;365.00;31.30;;;;;4.00;94154.00;;;;7398033;19;20145;-74
2022/11/30 00:20:28;;;;;;;450.97;35.20;;;;;4.00;94152.00;;;;7399245;19;20583;-75
2022/11/30 00:22:56;;;;;;;612.70;42.17;;;;;4.10;94150.00;;;;7396218;19;20196;-75
2022/11/30 00:25:44;;;;;;;1237.23;62.83;;;;;4.10;94163.00;;;;7395541;19;20227;-76
2022/11/30 00:28:11;;;;;;;827.33;50.93;;;;;4.00;94162.00;;;;7397651;19;20143;-76
2022/11/30 00:30:55;;;;;;;857.80;51.57;;;;;4.00;94155.00;;;;7397018;19;20603;-75
2022/11/30 00:33:22;;;;;;;761.23;47.23;;;;;3.90;94158.00;;;;7398356;19;20600;-75
2022/11/30 00:35:58;;;;;;;785.63;50.83;;;;;4.00;94156.00;;;;7396963;19;20132;-76
2022/11/30 00:38:25;;;;;;;639.03;46.03;;;;;4.00;94161.00;;;;7396546;19;20140;-75
2022/11/30 00:40:58;;;;;;;817.73;45.63;;;;;4.00;94153.00;;;;7397078;19;20478;-75
2022/11/30 00:43:32;;;;;;;692.63;42.07;;;;;4.00;94154.00;;;;7396039;19;20144;-74
2022/11/30 00:46:00;;;;;;;666.80;36.10;;;;;4.00;94156.00;;;;7396718;19;20133;-75
2022/11/30 00:48:27;;;;;;;902.93;47.63;;;;;4.10;94150.00;;;;7397015;19;20148;-75
2022/11/30 00:51:01;;;;;;;463.53;34.73;;;;;4.00;94156.00;;;;7397917;19;20149;-75
2022/11/30 00:53:28;;;;;;;856.07;54.57;;;;;4.00;94147.00;;;;7397637;19;20472;-74
2022/11/30 00:55:56;;;;;;;700.80;38.87;;;;;3.90;94164.00;;;;7396107;19;20125;-74
2022/11/30 00:58:30;;;;;;;549.13;38.80;;;;;4.10;94162.00;;;;7397485;19;20184;-75
2022/11/30 01:00:57;;;;;;;892.57;48.23;;;;;4.10;94162.00;;;;7396197;19;20140;-74
2022/11/30 01:03:28;;;;;;;483.27;33.93;;;;;4.00;94163.00;;;;7394723;19;20208;-74
2022/11/30 01:06:07;;;;;;;917.20;59.00;;;;;4.10;94167.00;;;;7395498;19;20148;-75
2022/11/30 01:08:37;;;;;;;857.47;52.63;;;;;4.00;94163.00;;;;7397607;19;20135;-74
2022/11/30 01:11:20;;;;;;;1016.20;61.43;;;;;4.00;94161.00;;;;7396405;19;20132;-75
2022/11/30 01:13:48;;;;;;;965.43;52.30;;;;;4.00;94164.00;;;;7396536;19;20745;-75
2022/11/30 01:16:25;;;;;;;1373.17;67.97;;;;;4.00;94163.00;;;;7395572;19;20141;-75
2022/11/30 01:18:52;;;;;;;972.60;51.80;;;;;4.00;94160.00;;;;7395713;19;20151;-75
2022/11/30 01:21:24;;;;;;;1088.03;52.67;;;;;4.00;94160.00;;;;7395218;19;20212;-74
2022/11/30 01:24:12;;;;;;;1099.53;50.93;;;;;4.10;94165.00;;;;7395501;19;20135;-75
2022/11/30 01:26:46;;;;;;;788.00;43.23;;;;;4.00;94167.00;;;;7395323;19;20129;-75
2022/11/30 01:29:20;;;;;;;1097.23;50.60;;;;;4.00;94165.00;;;;7395387;19;20488;-75
2022/11/30 01:31:48;;;;;;;829.93;39.63;;;;;4.00;94160.00;;;;7397938;19;20194;-75
2022/11/30 01:34:16;;;;;;;695.37;40.07;;;;;4.00;94168.00;;;;7400112;19;20529;-75
2022/11/30 01:36:49;;;;;;;586.03;33.57;;;;;4.00;94166.00;;;;7402392;19;20141;-74
2022/11/30 01:39:17;;;;;;;1178.57;55.27;;;;;4.00;94165.00;;;;7402570;19;20128;-75
2022/11/30 01:41:49;;;;;;;1034.23;57.93;;;;;3.90;94166.00;;;;7403673;19;20148;-75
2022/11/30 01:44:25;;;;;;;912.30;44.10;;;;;4.00;94165.00;;;;7401533;19;20159;-75
2022/11/30 01:47:09;;;;;;;682.97;42.80;;;;;4.00;94167.00;;;;7402430;19;20144;-74
2022/11/30 01:49:50;;;;;;;983.53;42.07;;;;;3.90;94173.00;;;;7403314;19;20208;-75
2022/11/30 01:52:21;;;;;;;739.03;37.30;;;;;4.00;94171.00;;;;7402963;19;20143;-75
2022/11/30 01:55:18;;;;;;;838.27;42.27;;;;;4.00;94170.00;;;;7402006;19;20518;-75
2022/11/30 01:57:58;;;;;;;764.37;37.63;;;;;4.00;94178.00;;;;7400353;19;20140;-75
2022/11/30 02:00:34;;;;;;;757.97;36.87;;;;;4.10;94182.00;;;;7404157;19;20121;-74
2022/11/30 02:03:16;;;;;;;724.10;35.67;;;;;4.00;94178.00;;;;7404223;19;20576;-74
2022/11/30 02:05:50;;;;;;;459.20;28.00;;;;;3.90;94184.00;;;;7403833;19;20129;-74
2022/11/30 02:08:18;;;;;;;780.53;48.03;;;;;4.00;94171.00;;;;7401278;19;20144;-75
2022/11/30 02:10:53;;;;;;;700.70;36.40;;;;;4.10;94182.00;;;;7402763;19;20149;-74
2022/11/30 02:13:30;;;;;;;806.17;36.60;;;;;4.00;94172.00;;;;7403518;19;20550;-74
2022/11/30 02:16:05;;;;;;;490.80;33.17;;;;;3.90;94182.00;;;;7402217;19;20129;-75
2022/11/30 02:19:01;;;;;;;783.33;38.33;;;;;4.00;94186.00;;;;7402289;19;20131;-74
2022/11/30 02:21:51;;;;;;;690.23;31.77;;;;;4.00;94178.00;;;;7400812;19;20615;-75
2022/11/30 02:25:13;;;;;;;618.53;31.03;;;;;3.90;94183.00;;;;7397303;19;20487;-75
2022/11/30 02:28:12;;;;;;;724.47;39.53;;;;;3.90;94182.00;;;;7402741;19;20133;-75
2022/11/30 02:30:49;;;;;;;617.73;31.23;;;;;3.90;94179.00;;;;7403346;19;20129;-75
2022/11/30 02:33:26;;;;;;;474.90;25.30;;;;;3.90;94178.00;;;;7401806;19;20623;-75
2022/11/30 02:36:06;;;;;;;656.67;31.43;;;;;4.00;94177.00;;;;7403610;19;20121;-74
2022/11/30 02:38:33;;;;;;;645.33;31.37;;;;;4.00;94178.00;;;;7402567;19;20480;-74
2022/11/30 02:41:02;;;;;;;1035.47;49.47;;;;;3.90;94183.00;;;;7401663;19;20141;-74
2022/11/30 02:43:38;;;;;;;786.67;36.10;;;;;4.00;94186.00;;;;7401700;19;20156;-74
2022/11/30 02:46:18;;;;;;;641.47;29.93;;;;;3.90;94178.00;;;;7402146;19;20579;-74
2022/11/30 02:49:19;;;;;;;562.90;28.30;;;;;4.10;94178.00;;;;7402282;19;20125;-74
2022/11/30 02:51:47;;;;;;;535.47;26.37;;;;;4.00;94185.00;;;;7400158;19;20125;-74
2022/11/30 02:54:21;;;;;;;298.00;17.50;;;;;3.90;94182.00;;;;7401829;19;20604;-74
2022/11/30 02:56:53;;;;;;;323.40;20.80;;;;;3.90;94178.00;;;;7400423;19;20174;-74
2022/11/30 02:59:22;;;;;;;406.23;23.33;;;;;4.00;94180.00;;;;7402175;19;20137;-74
2022/11/30 03:01:57;;;;;;;549.87;27.20;;;;;3.90;94181.00;;;;7402044;19;20168;-74
2022/11/30 03:04:24;;;;;;;451.23;20.80;;;;;4.00;94179.00;;;;7400751;19;20204;-74
2022/11/30 03:06:52;;;;;;;246.87;20.67;;;;;4.00;94173.00;;;;7401272;19;20141;-74
2022/11/30 03:09:26;;;;;;;289.97;17.23;;;;;4.00;94176.00;;;;7401370;19;20202;-74
2022/11/30 03:11:54;;;;;;;281.57;17.77;;;;;4.00;94168.00;;;;7400407;19;20141;-74
2022/11/30 03:14:24;;;;;;;97.60;12.40;;;;;3.90;94180.00;;;;7399330;19;20180;-74
2022/11/30 03:16:58;;;;;;;213.20;17.10;;;;;3.90;94182.00;;;;7400833;19;20147;-74
2022/11/30 03:19:25;;;;;;;356.33;21.30;;;;;3.90;94182.00;;;;7400802;19;20180;-74
2022/11/30 03:21:53;;;;;;;435.43;23.20;;;;;4.00;94184.00;;;;7400354;19;20134;-74
2022/11/30 03:24:41;;;;;;;62.07;10.83;;;;;3.90;94186.00;;;;7399276;19;20148;-74
2022/11/30 03:27:15;;;;;;;320.90;19.93;;;;;3.80;94183.00;;;;7399621;19;20481;-74
2022/11/30 03:29:49;;;;;;;540.10;28.13;;;;;3.90;94180.00;;;;7401406;19;20472;-74
2022/11/30 03:32:17;;;;;;;300.97;21.07;;;;;3.90;94173.00;;;;7399627;19;20140;-74
2022/11/30 03:34:44;;;;;;;397.67;23.00;;;;;3.90;94182.00;;;;7401286;19;20559;-74
2022/11/30 03:37:18;;;;;;;398.10;20.20;;;;;3.90;94185.00;;;;7399667;19;20216;-74
2022/11/30 03:39:46;;;;;;;696.80;37.27;;;;;3.90;94186.00;;;;7399792;19;20615;-74
2022/11/30 03:42:13;;;;;;;254.77;17.93;;;;;3.90;94179.00;;;;7400744;19;20129;-74
2022/11/30 03:44:47;;;;;;;483.53;22.57;;;;;3.90;94186.00;;;;7400013;19;20153;-74
2022/11/30 03:47:15;;;;;;;560.87;30.50;;;;;4.00;94190.00;;;;7400481;19;20148;-74
2022/11/30 03:49:45;;;;;;;511.63;25.87;;;;;3.90;94184.00;;;;7399374;19;20145;-75
2022/11/30 03:52:18;;;;;;;322.10;19.33;;;;;3.90;94191.00;;;;7400337;19;20132;-74
2022/11/30 03:54:45;;;;;;;318.53;18.00;;;;;4.00;94183.00;;;;7398682;19;20616;-75
2022/11/30 03:57:13;;;;;;;105.77;12.20;;;;;3.90;94177.00;;;;7397956;19;20125;-74
2022/11/30 03:59:47;;;;;;;63.50;9.03;;;;;3.80;94188.00;;;;7398788;19;20140;-74
2022/11/30 04:02:14;;;;;;;261.40;16.60;;;;;3.90;94190.00;;;;7398765;19;20212;-74
2022/11/30 04:04:44;;;;;;;166.27;14.90;;;;;3.90;94183.00;;;;7397885;19;20150;-74
2022/11/30 04:07:19;;;;;;;269.63;15.53;;;;;3.90;94188.00;;;;7400099;19;20145;-74
2022/11/30 04:09:48;;;;;;;327.33;21.67;;;;;3.90;94189.00;;;;7400841;19;20125;-74
2022/11/30 04:12:16;;;;;;;272.60;18.23;;;;;3.90;94191.00;;;;7399849;19;20140;-74
2022/11/30 04:14:50;;;;;;;458.57;24.37;;;;;3.90;94182.00;;;;7397486;19;20134;-75
2022/11/30 04:17:17;;;;;;;398.27;21.20;;;;;3.90;94192.00;;;;7399983;19;20125;-74
2022/11/30 04:19:45;;;;;;;469.17;21.33;;;;;3.80;94193.00;;;;7399006;19;20185;-74
2022/11/30 04:22:19;;;;;;;408.27;22.47;;;;;3.80;94188.00;;;;7397396;19;20603;-74
2022/11/30 04:24:59;;;;;;;499.93;22.00;;;;;3.70;94191.00;;;;7398209;19;20155;-74
2022/11/30 04:27:34;;;;;;;397.47;24.73;;;;;3.70;94185.00;;;;7395795;19;20498;-74
2022/11/30 04:30:01;;;;;;;798.43;40.40;;;;;3.80;94193.00;;;;7397457;19;20158;-75
2022/11/30 04:32:28;;;;;;;268.97;13.67;;;;;3.80;94195.00;;;;7399510;19;20136;-74
2022/11/30 04:35:03;;;;;;;890.13;45.37;;;;;3.90;94190.00;;;;7399486;19;20591;-74
2022/11/30 04:37:30;;;;;;;850.63;35.87;;;;;3.80;94188.00;;;;7399216;19;20203;-74
2022/11/30 04:39:58;;;;;;;750.33;36.97;;;;;3.80;94189.00;;;;7397584;19;20149;-75
2022/11/30 04:42:34;;;;;;;624.70;30.77;;;;;3.90;94189.00;;;;7396679;19;20637;-74
2022/11/30 04:45:02;;;;;;;625.60;29.37;;;;;4.00;94184.00;;;;7395881;19;20607;-74
2022/11/30 04:47:32;;;;;;;607.50;29.97;;;;;3.90;94190.00;;;;7396781;19;20125;-74
2022/11/30 04:50:07;;;;;;;554.50;29.13;;;;;3.90;94188.00;;;;7396953;19;20216;-74
2022/11/30 04:52:35;;;;;;;351.47;20.83;;;;;3.70;94190.00;;;;7397976;19;20151;-74
2022/11/30 04:55:03;;;;;;;206.23;19.03;;;;;3.80;94183.00;;;;7397934;19;20212;-74
2022/11/30 04:57:37;;;;;;;262.30;21.40;;;;;3.80;94189.00;;;;7398163;19;20132;-74
2022/11/30 05:00:06;;;;;;;406.07;27.27;;;;;3.80;94190.00;;;;7395985;19;20200;-74
2022/11/30 05:02:33;;;;;;;708.30;37.40;;;;;3.80;94192.00;;;;7398358;19;20127;-74
2022/11/30 05:05:07;;;;;;;589.10;32.37;;;;;3.80;94200.00;;;;7394610;19;20149;-74
2022/11/30 05:07:35;;;;;;;558.43;32.60;;;;;3.80;94196.00;;;;7396142;19;20632;-76
2022/11/30 05:10:03;;;;;;;579.00;28.50;;;;;3.70;94198.00;;;;7400729;19;20151;-74
2022/11/30 05:12:37;;;;;;;998.80;42.67;;;;;3.70;94191.00;;;;7403087;19;20231;-74
2022/11/30 05:15:05;;;;;;;768.33;36.13;;;;;3.70;94199.00;;;;7400995;19;20662;-75
2022/11/30 05:17:32;;;;;;;1298.57;54.33;;;;;3.70;94196.00;;;;7404241;19;20603;-74
2022/11/30 05:20:06;;;;;;;1105.83;45.30;;;;;3.80;94197.00;;;;7404146;19;20601;-76
2022/11/30 05:22:34;;;;;;;1611.80;63.47;;;;;3.80;94200.00;;;;7404877;19;20609;-75
2022/11/30 05:25:02;;;;;;;1393.77;54.43;;;;;3.80;94199.00;;;;7402125;19;20149;-75
2022/11/30 05:27:43;;;;;;;1327.80;52.73;;;;;3.80;94196.00;;;;7404805;19;20192;-75
2022/11/30 05:30:13;;;;;;;1151.53;54.30;;;;;3.80;94194.00;;;;7403637;19;20128;-75
2022/11/30 05:32:47;;;;;;;1482.93;75.27;;;;;3.80;94207.00;;;;7403879;19;20133;-75
2022/11/30 05:35:14;;;;;;;1276.47;59.20;;;;;3.70;94208.00;;;;7402943;19;20141;-74
2022/11/30 05:37:42;;;;;;;1098.90;49.97;;;;;3.70;94213.00;;;;7404685;19;20125;-75
2022/11/30 05:40:16;;;;;;;1588.03;67.13;;;;;3.90;94209.00;;;;7403087;19;20119;-75
2022/11/30 05:42:43;;;;;;;1442.57;61.10;;;;;3.80;94210.00;;;;7402235;19;20673;-75
2022/11/30 05:45:11;;;;;;;1558.77;76.10;;;;;3.90;94209.00;;;;7401766;19;20125;-76
2022/11/30 05:47:46;;;;;;;1500.07;68.67;;;;;3.80;94205.00;;;;7403536;19;20140;-75
2022/11/30 05:50:18;;;;;;;1192.20;60.47;;;;;3.80;94211.00;;;;7402394;19;20224;-75
2022/11/30 05:52:59;;;;;;;1387.53;67.73;;;;;3.70;94209.00;;;;7404616;19;20142;-75
2022/11/30 05:55:33;;;;;;;1334.27;66.33;;;;;3.70;94212.00;;;;7402385;19;20163;-75
2022/11/30 05:58:01;;;;;;;1344.87;60.57;;;;;3.60;94209.00;;;;7403889;19;20702;-75
2022/11/30 06:00:28;;;;;;;1548.43;64.77;;;;;3.60;94208.00;;;;7402375;19;20140;-75
2022/11/30 06:03:02;;;;;;;1517.17;73.23;;;;;3.60;94207.00;;;;7403079;19;20584;-75
2022/11/30 06:05:33;;;;;;;958.67;51.70;;;;;3.60;94210.00;;;;7402786;19;20216;-76
2022/11/30 06:08:02;;;;;;;1219.93;65.00;;;;;3.70;94208.00;;;;7403854;19;20189;-75
2022/11/30 06:10:41;;;;;;;947.53;52.60;;;;;3.70;94201.00;;;;7402000;19;20161;-75
2022/11/30 06:13:09;;;;;;;774.80;47.03;;;;;3.60;94203.00;;;;7402493;19;20142;-74
2022/11/30 06:15:42;;;;;;;968.50;58.70;;;;;3.60;94206.00;;;;7403357;19;20202;-75
2022/11/30 06:18:16;;;;;;;952.80;52.47;;;;;3.60;94199.00;;;;7402937;19;20137;-75
2022/11/30 06:20:45;;;;;;;883.60;50.53;;;;;3.60;94208.00;;;;7401095;19;20151;-75
2022/11/30 06:23:13;;;;;;;1103.63;54.47;;;;;3.50;94202.00;;;;7401976;19;20148;-75
2022/11/30 06:25:53;;;;;;;1245.00;70.27;;;;;3.50;94201.00;;;;7399588;19;20239;-75
2022/11/30 06:28:21;;;;;;;1333.07;57.63;;;;;3.50;94197.00;;;;7401386;19;20200;-75
2022/11/30 06:31:02;;;;;;;1290.93;68.03;;;;;3.50;94205.00;;;;7402501;19;20146;-75
2022/11/30 06:33:29;;;;;;;1077.77;48.83;;;;;3.50;94206.00;;;;7400884;19;20615;-75
2022/11/30 06:36:03;;;;;;;786.00;43.03;;;;;3.50;94206.00;;;;7401841;19;20608;-75
2022/11/30 06:38:31;;;;;;;694.77;36.47;;;;;3.40;94204.00;;;;7400933;19;20149;-76
2022/11/30 06:41:07;;;;;;;1246.43;61.03;;;;;3.60;94214.00;;;;7400753;19;20455;-75
2022/11/30 06:43:41;;;;;;;1114.53;60.20;;;;;3.50;94205.00;;;;7400373;19;20140;-75
2022/11/30 06:46:17;;;;;;;798.77;49.50;;;;;3.50;94209.00;;;;7399438;19;20486;-75
2022/11/30 06:48:51;;;;;;;837.33;44.57;;;;;3.50;94212.00;;;;7401216;19;20125;-75
2022/11/30 06:51:19;;;;;;;625.87;35.67;;;;;3.40;94208.00;;;;7401326;19;20125;-75
2022/11/30 06:53:46;;;;;;;942.37;45.87;;;;;3.60;94214.00;;;;7402144;19;20142;-75
2022/11/30 06:56:20;;;;;;;496.70;34.17;;;;;3.50;94216.00;;;;7401046;19;20125;-75
2022/11/30 06:58:53;;;;;;;868.57;49.17;;;;;3.50;94203.00;;;;7402486;19;20137;-75
2022/11/30 07:01:20;;;;;;;580.47;39.40;;;;;3.60;94205.00;;;;7399630;19;20136;-75
2022/11/30 07:03:54;;;;;;;703.30;38.07;;;;;3.40;94214.00;;;;7400063;19;20121;-75
2022/11/30 07:06:23;;;;;;;845.87;45.50;;;;;3.40;94218.00;;;;7399434;19;20204;-75
2022/11/30 07:08:51;;;;;;;773.07;46.30;;;;;3.50;94218.00;;;;7400945;19;20204;-76
2022/11/30 07:11:25;;;;;;;672.73;34.00;;;;;3.40;94212.00;;;;7399999;19;20153;-75
2022/11/30 07:13:52;;;;;;;1049.03;54.00;;;;;3.60;94208.00;;;;7399525;19;20208;-75
2022/11/30 07:16:20;;;;;;;598.13;44.33;;;;;3.50;94214.00;;;;7401643;19;20472;-75
2022/11/30 07:18:54;;;;;;;1116.60;46.17;;;;;3.50;94212.00;;;;7399836;19;20160;-75
2022/11/30 07:21:21;;;;;;;915.63;48.37;;;;;3.70;94214.00;;;;7399748;19;20208;-75
2022/11/30 07:26:47;;;;;;;819.90;42.77;;;;;3.60;94216.00;;;;7396667;19;20169;-75
2022/11/30 07:29:15;;;;;;;1060.67;54.37;;;;;3.80;94227.00;;;;7399527;19;20188;-75
2022/11/30 07:31:52;;;;;;;585.37;38.13;;;;;3.70;94228.00;;;;7399957;19;20129;-75
2022/11/30 07:34:21;;;;;;;524.27;36.13;;;;;3.60;94221.00;;;;7399108;19;20140;-75
2022/11/30 07:36:49;;;;;;;637.97;38.20;;;;;3.80;94226.00;;;;7398836;19;20656;-75
2022/11/30 07:39:23;;;;;;;547.23;36.30;;;;;3.80;94217.00;;;;7400811;19;20487;-75
2022/11/30 07:41:53;;;;;;;595.20;37.83;;;;;3.70;94222.00;;;;7398741;19;20653;-75
2022/11/30 07:44:20;;;;;;;299.07;24.47;;;;;3.70;94224.00;;;;7398550;19;20202;-75
2022/11/30 07:47:01;;;;;;;543.73;33.83;;;;;3.80;94221.00;;;;7397816;19;20145;-75
2022/11/30 07:49:28;;;;;;;452.77;30.23;;;;;3.80;94225.00;;;;7400191;19;20128;-75
2022/11/30 07:52:03;;;;;;;370.70;28.40;;;;;3.80;94232.00;;;;7397926;19;20133;-75
2022/11/30 07:54:33;;;;;;;311.70;26.77;;;;;3.80;94226.00;;;;7397828;19;20200;-74
2022/11/30 07:57:03;;;;;;;628.27;36.33;;;;;3.90;94234.00;;;;7399790;19;20129;-75
2022/11/30 07:59:38;;;;;;;360.43;29.20;;;;;3.70;94230.00;;;;7399918;19;20618;-75
2022/11/30 08:02:05;;;;;;;397.47;30.20;;;;;3.80;94233.00;;;;7395308;19;20148;-75
2022/11/30 08:04:33;;;;;;;712.83;46.77;;;;;3.90;94239.00;;;;7397577;19;20479;-75
2022/11/30 08:07:07;;;;;;;688.03;45.20;;;;;3.90;94240.00;;;;7397146;19;20472;-75
2022/11/30 08:09:34;;;;;;;704.37;40.23;;;;;3.90;94240.00;;;;7398418;19;20145;-76
2022/11/30 08:12:02;;;;;;;375.60;27.93;;;;;3.90;94241.00;;;;7399527;19;20148;-75
2022/11/30 08:14:36;;;;;;;534.47;30.50;;;;;3.90;94240.00;;;;7396390;19;20196;-75
2022/11/30 08:17:23;;;;;;;221.77;19.30;;;;;3.80;94244.00;;;;7399180;19;20184;-76
2022/11/30 08:19:57;;;;;;;739.47;37.23;;;;;3.80;94243.00;;;;7396838;19;20144;-76
2022/11/30 08:22:25;;;;;;;430.90;25.20;;;;;4.00;94242.00;;;;7398020;19;20512;-75
2022/11/30 08:24:52;;;;;;;544.43;35.73;;;;;4.00;94244.00;;;;7398075;19;20157;-75
2022/11/30 08:27:32;;;;;;;429.30;31.63;;;;;3.90;94243.00;;;;7396538;19;20127;-75
2022/11/30 08:30:00;;;;;;;526.50;32.23;;;;;3.90;94247.00;;;;7397738;19;20128;-74
2022/11/30 08:32:34;;;;;;;533.07;36.07;;;;;3.90;94244.00;;;;7396081;19;20137;-76
2022/11/30 08:35:01;;;;;;;374.30;27.63;;;;;3.90;94248.00;;;;7389086;19;20197;-76
2022/11/30 08:37:28;;;;;;;536.13;33.27;;;;;4.00;94258.00;;;;7391773;19;20205;-76
2022/11/30 08:40:04;;;;;;;450.97;29.47;;;;;4.00;94258.00;;;;7391655;19;20143;-76
2022/11/30 08:42:31;;;;;;;325.33;26.70;;;;;4.10;94263.00;;;;7393345;19;20156;-75
2022/11/30 08:44:58;;;;;;;262.17;24.43;;;;;4.20;94258.00;;;;7391333;19;20132;-75
2022/11/30 08:47:33;;;;;;;629.73;54.07;;;;;4.20;94261.00;;;;7390539;19;20211;-76
2022/11/30 08:50:00;;;;;;;415.20;30.83;;;;;4.00;94270.00;;;;7392832;19;20596;-76
2022/11/30 08:52:30;;;;;;;461.40;33.27;;;;;4.10;94262.00;;;;7391191;19;20155;-76
2022/11/30 08:55:04;;;;;;;792.30;40.60;;;;;4.00;94265.00;;;;7392802;19;20208;-76
2022/11/30 08:57:32;;;;;;;1019.03;61.40;;;;;4.20;94270.00;;;;7392561;19;20132;-75
2022/11/30 08:59:59;;;;;;;519.27;31.20;;;;;4.10;94269.00;;;;7391359;19;20655;-76
2022/11/30 09:02:35;;;;;;;1069.20;51.17;;;;;4.10;94276.00;;;;7391436;19;20132;-76
2022/11/30 09:05:10;;;;;;;675.60;30.23;;;;;4.20;94278.00;;;;7390660;19;20140;-74
2022/11/30 09:07:44;;;;;;;818.77;44.43;;;;;4.20;94283.00;;;;7390071;19;20217;-76
2022/11/30 09:10:12;;;;;;;982.63;47.70;;;;;4.30;94277.00;;;;7391130;19;20224;-75
2022/11/30 09:12:41;;;;;;;644.77;37.40;;;;;4.30;94279.00;;;;7390688;19;20151;-75
2022/11/30 09:15:14;;;;;;;673.33;35.20;;;;;4.30;94281.00;;;;7388414;19;20172;-76
2022/11/30 09:17:42;;;;;;;240.50;26.40;;;;;4.40;94280.00;;;;7391342;19;20240;-76
2022/11/30 09:20:10;;;;;;;440.27;29.67;;;;;4.40;94288.00;;;;7390945;19;20133;-76
2022/11/30 09:22:43;;;;;;;234.33;27.73;;;;;4.20;94290.00;;;;7390333;19;20630;-76
2022/11/30 09:25:24;;;;;;;46.70;16.23;;;;;4.40;94287.00;;;;7388922;19;20633;-76
2022/11/30 09:27:58;;;;;;;74.67;19.63;;;;;4.40;94288.00;;;;7390574;19;20595;-76
2022/11/30 09:30:26;;;;;;;48.33;17.57;;;;;4.40;94290.00;;;;7390361;19;20738;-75
2022/11/30 09:32:53;;;;;;;131.30;19.37;;;;;4.40;94300.00;;;;7392504;19;20197;-77
2022/11/30 09:35:27;;;;;;;34.03;15.63;;;;;4.60;94291.00;;;;7389812;19;20655;-76
2022/11/30 09:37:55;;;;;;;38.33;15.70;;;;;4.80;94290.00;;;;7390951;19;20155;-76
2022/11/30 09:40:22;;;;;;;26.50;13.87;;;;;4.90;94289.00;;;;7390975;19;20144;-76
2022/11/30 09:43:29;;;;;;;24.70;13.43;;;;;4.90;94286.00;;;;7390629;19;20133;-76
2022/11/30 09:46:00;;;;;;;17.57;11.17;;;;;5.40;94288.00;;;;7390851;19;20551;-76
2022/11/30 09:48:56;;;;;;;25.30;14.30;;;;;5.50;94287.00;;;;7391856;19;20203;-75
2022/11/30 09:51:48;;;;;;;18.27;11.50;;;;;5.80;94280.00;;;;7392219;19;20130;-76
2022/11/30 09:54:35;;;;;;;17.07;11.20;;;;;5.80;94282.00;;;;7392185;19;20469;-76
2022/11/30 09:57:27;;;;;;;15.73;10.37;;;;;5.70;94283.00;;;;7394977;19;20551;-75
2022/11/30 10:00:15;;;;;;;14.87;10.73;;;;;5.60;94278.00;;;;7398338;19;20152;-76
2022/11/30 10:02:43;;;;;;;15.43;10.90;;;;;5.50;94283.00;;;;7397283;19;20148;-76
2022/11/30 10:05:25;;;;;;;18.10;13.00;;;;;5.60;94289.00;;;;7399566;19;20156;-75
2022/11/30 10:08:05;;;;;;;21.00;14.80;;;;;5.50;94286.00;;;;7396318;19;20148;-75
2022/11/30 10:10:40;;;;;;;16.37;11.63;;;;;5.30;94289.00;;;;7397752;19;20151;-76
2022/11/30 10:13:29;;;;;;;19.27;11.73;;;;;5.30;94281.00;;;;7399373;19;20586;-76
2022/11/30 10:16:09;;;;;;;18.47;12.40;;;;;5.20;94282.00;;;;7398700;19;20517;-76
2022/11/30 10:18:48;;;;;;;19.53;13.00;;;;;5.10;94288.00;;;;7396448;19;20604;-76
2022/11/30 10:21:28;;;;;;;19.63;12.43;;;;;5.00;94280.00;;;;7399352;19;20479;-76
2022/11/30 10:24:29;;;;;;;20.47;12.70;;;;;4.90;94277.00;;;;7396493;19;20149;-75
2022/11/30 10:27:26;;;;;;;20.57;13.10;;;;;4.70;94274.00;;;;7393727;19;20148;-76
2022/11/30 10:29:59;;;;;;;24.03;13.43;;;;;4.60;94275.00;;;;7397156;19;20660;-75
2022/11/30 10:32:43;;;;;;;25.60;14.87;;;;;4.60;94273.00;;;;7396598;19;20152;-75
2022/11/30 10:35:28;;;;;;;40.83;15.13;;;;;4.60;94262.00;;;;7394858;19;20141;-76
2022/11/30 10:38:33;;;;;;;39.60;18.33;;;;;4.80;94268.00;;;;7396152;19;20142;-75
2022/11/30 10:41:09;;;;;;;26.47;16.07;;;;;5.10;94267.00;;;;7393977;19;20751;-75
2022/11/30 10:43:51;;;;;;;71.47;18.77;;;;;4.70;94266.00;;;;7386613;19;20156;-75
2022/11/30 10:46:33;;;;;;;231.73;22.93;;;;;4.50;94265.00;;;;7393765;19;20164;-75
2022/11/30 10:49:14;;;;;;;193.50;25.00;;;;;4.50;94265.00;;;;7394868;19;20152;-75
2022/11/30 10:51:46;;;;;;;211.37;24.17;;;;;4.50;94256.00;;;;7396826;19;20124;-75
2022/11/30 10:54:24;;;;;;;448.97;29.87;;;;;4.60;94258.00;;;;7395373;19;20149;-74
2022/11/30 10:56:51;;;;;;;332.53;26.20;;;;;4.60;94253.00;;;;7393896;19;20211;-74
2022/11/30 10:59:44;;;;;;;48.60;17.80;;;;;4.70;94253.00;;;;7395594;19;20133;-74
2022/11/30 11:02:51;;;;;;;70.03;18.10;;;;;4.60;94257.00;;;;7396673;19;20137;-74
2022/11/30 11:05:29;;;;;;;418.70;28.77;;;;;4.70;94257.00;;;;7392597;19;20603;-74
2022/11/30 11:08:26;;;;;;;444.30;28.47;;;;;4.70;94251.00;;;;7392759;19;20145;-74
2022/11/30 11:10:53;;;;;;;564.57;31.50;;;;;4.60;94256.00;;;;7395888;19;20150;-74
2022/11/30 11:13:42;;;;;;;265.17;22.90;;;;;4.60;94254.00;;;;7393956;19;20180;-74
2022/11/30 11:16:11;;;;;;;31.47;16.30;;;;;4.40;94253.00;;;;7396526;19;20127;-74
2022/11/30 11:18:56;;;;;;;33.43;14.53;;;;;4.50;94253.00;;;;7394377;19;20168;-73
2022/11/30 11:21:25;;;;;;;41.20;16.27;;;;;4.40;94263.00;;;;7395865;19;20584;-74
2022/11/30 11:24:07;;;;;;;32.53;14.23;;;;;4.30;94259.00;;;;7393030;19;20156;-74
2022/11/30 11:26:42;;;;;;;32.97;14.47;;;;;4.30;94250.00;;;;7393258;19;20892;-74
2022/11/30 11:29:35;;;;;;;37.13;15.73;;;;;4.30;94248.00;;;;7392156;19;20152;-74
2022/11/30 11:32:26;;;;;;;35.43;15.67;;;;;4.40;94251.00;;;;7395072;19;20148;-74
2022/11/30 11:35:03;;;;;;;36.67;15.30;;;;;4.60;94254.00;;;;7392598;19;20141;-74
2022/11/30 11:37:36;;;;;;;27.20;14.33;;;;;4.80;94245.00;;;;7394101;19;20187;-74
2022/11/30 11:40:28;;;;;;;32.57;16.13;;;;;4.80;94245.00;;;;7393182;19;20521;-74
2022/11/30 11:42:57;;;;;;;35.67;15.87;;;;;5.00;94247.00;;;;7393395;19;20164;-74
2022/11/30 11:45:36;;;;;;;28.53;14.87;;;;;5.00;94252.00;;;;7393097;19;20149;-74
2022/11/30 11:48:25;;;;;;;26.67;15.13;;;;;5.20;94268.00;;;;7394330;19;20212;-74
2022/11/30 11:51:04;;;;;;;29.73;16.90;;;;;5.00;94256.00;;;;7391877;19;20137;-74
2022/11/30 11:53:51;;;;;;;25.43;14.27;;;;;5.10;94260.00;;;;7394019;19;20156;-74
2022/11/30 11:56:24;;;;;;;22.63;14.33;;;;;5.10;94264.00;;;;7394495;19;20148;-74
2022/11/30 11:59:09;;;;;;;25.10;14.37;;;;;5.20;94253.00;;;;7397895;19;20148;-74
2022/11/30 12:02:06;;;;;;;23.23;14.53;;;;;5.00;94257.00;;;;7397397;19;20147;-74
2022/11/30 12:04:55;;;;;;;25.03;14.47;;;;;4.90;94257.00;;;;7398182;19;20152;-73
2022/11/30 12:07:52;;;;;;;20.83;13.33;;;;;5.00;94253.00;;;;7399319;19;20137;-74
2022/11/30 12:10:31;;;;;;;23.63;13.70;;;;;4.80;94256.00;;;;7399375;19;20128;-73
2022/11/30 12:13:31;;;;;;;23.23;13.73;;;;;4.80;94257.00;;;;7399619;19;20137;-74
2022/11/30 12:16:13;;;;;;;21.27;13.50;;;;;4.90;94249.00;;;;7398307;19;20509;-73
2022/11/30 12:19:07;;;;;;;19.97;13.60;;;;;4.80;94254.00;;;;7395502;19;20171;-73
2022/11/30 12:22:11;;;;;;;22.97;13.90;;;;;4.70;94252.00;;;;7397278;19;20663;-73
2022/11/30 12:25:21;;;;;;;20.63;13.37;;;;;4.80;94257.00;;;;7399017;19;20128;-74
2022/11/30 12:28:06;;;;;;;22.43;14.47;;;;;4.60;94256.00;;;;7397146;19;20530;-74
2022/11/30 12:30:59;;;;;;;21.73;14.80;;;;;4.60;94251.00;;;;7393815;19;20149;-74
2022/11/30 12:33:29;;;;;;;24.50;14.93;;;;;4.50;94256.00;;;;7394747;19;20124;-73
2022/11/30 12:36:17;;;;;;;22.83;14.50;;;;;4.40;94251.00;;;;7394476;19;20583;-74
2022/11/30 12:38:54;;;;;;;29.60;17.40;;;;;4.50;94257.00;;;;7394998;19;20208;-74
2022/11/30 12:41:27;;;;;;;33.17;19.80;;;;;4.50;94257.00;;;;7391912;19;20152;-74